createdAt,value
2022-12-29T00:02:13.846Z,100.00
2022-12-29T00:04:40.327Z,100.00
2022-12-29T00:07:07.399Z,100.00
2022-12-29T00:09:35.112Z,100.00
2022-12-29T00:12:03.526Z,100.00
2022-12-29T00:14:48.510Z,100.00
2022-12-29T00:17:15.601Z,100.00
2022-12-29T00:20:00.565Z,100.00
2022-12-29T00:22:45.804Z,100.00
2022-12-29T00:25:32.680Z,100.00
2022-12-29T00:28:17.943Z,100.00
2022-12-29T00:31:03.333Z,100.00
2022-12-29T00:33:50.639Z,100.00
2022-12-29T00:36:34.829Z,100.00
2022-12-29T00:39:35.840Z,100.00
2022-12-29T00:42:25.135Z,99.44
2022-12-29T00:44:51.548Z,98.84
2022-12-29T00:47:18.326Z,98.76
2022-12-29T00:49:44.937Z,99.67
2022-12-29T00:52:13.638Z,99.10
2022-12-29T00:54:41.602Z,98.78
2022-12-29T00:57:10.433Z,99.12
2022-12-29T00:59:40.894Z,98.89
2022-12-29T01:02:08.278Z,97.78
2022-12-29T01:04:34.897Z,97.99
2022-12-29T01:07:01.698Z,98.38
2022-12-29T01:09:46.841Z,98.31
2022-12-29T01:12:13.653Z,97.94
2022-12-29T01:14:41.094Z,97.90
2022-12-29T01:17:07.730Z,97.69
2022-12-29T01:19:34.266Z,98.68
2022-12-29T01:22:00.822Z,98.52
2022-12-29T01:24:27.440Z,98.25
2022-12-29T01:26:55.382Z,99.97
2022-12-29T01:29:21.956Z,100.00
2022-12-29T01:31:48.438Z,100.00
2022-12-29T01:34:15.114Z,100.00
2022-12-29T01:36:42.595Z,100.00
2022-12-29T01:39:09.046Z,100.00
2022-12-29T01:41:35.489Z,100.00
2022-12-29T01:44:03.404Z,100.00
2022-12-29T01:46:40.131Z,100.00
2022-12-29T01:49:06.482Z,100.00
2022-12-29T01:51:39.507Z,100.00
2022-12-29T01:54:17.489Z,100.00
2022-12-29T01:56:45.707Z,100.00
2022-12-29T01:59:18.581Z,100.00
2022-12-29T02:01:45.534Z,100.00
2022-12-29T02:04:13.412Z,100.00
2022-12-29T02:06:52.884Z,100.00
2022-12-29T02:09:19.549Z,100.00
2022-12-29T02:11:47.121Z,100.00
2022-12-29T02:14:15.033Z,100.00
2022-12-29T02:17:07.763Z,100.00
2022-12-29T02:20:05.875Z,100.00
2022-12-29T02:22:42.172Z,100.00
2022-12-29T02:25:20.474Z,100.00
2022-12-29T02:28:04.499Z,100.00
2022-12-29T02:30:52.699Z,100.00
2022-12-29T02:33:24.583Z,100.00
2022-12-29T02:36:03.328Z,100.00
2022-12-29T02:38:41.828Z,100.00
2022-12-29T02:41:30.667Z,100.00
2022-12-29T02:44:20.335Z,100.00
2022-12-29T02:47:01.132Z,100.00
2022-12-29T02:49:47.133Z,100.00
2022-12-29T02:52:26.348Z,100.00
2022-12-29T02:54:55.301Z,100.00
2022-12-29T02:57:21.675Z,100.00
2022-12-29T02:59:54.316Z,100.00
2022-12-29T03:02:58.356Z,100.00
2022-12-29T03:06:16.237Z,100.00
2022-12-29T03:09:21.891Z,100.00
2022-12-29T03:12:09.185Z,99.64
2022-12-29T03:15:31.522Z,100.00
2022-12-29T03:18:10.117Z,99.25
2022-12-29T03:20:52.152Z,99.04
2022-12-29T03:23:20.751Z,99.11
2022-12-29T03:25:51.850Z,98.74
2022-12-29T03:28:26.687Z,99.09
2022-12-29T03:30:53.913Z,99.01
2022-12-29T03:33:24.908Z,98.68
2022-12-29T03:35:55.100Z,98.59
2022-12-29T03:38:35.360Z,99.57
2022-12-29T03:41:05.434Z,99.20
2022-12-29T03:43:32.042Z,99.23
2022-12-29T03:45:58.680Z,99.52
2022-12-29T03:48:25.123Z,99.14
2022-12-29T03:50:51.578Z,99.25
2022-12-29T03:53:18.003Z,99.21
2022-12-29T03:55:45.094Z,98.79
2022-12-29T03:58:11.483Z,98.84
2022-12-29T04:00:37.891Z,98.77
2022-12-29T04:03:04.343Z,98.82
2022-12-29T04:05:32.103Z,98.62
2022-12-29T04:07:59.420Z,98.82
2022-12-29T04:10:25.879Z,99.09
2022-12-29T04:12:52.361Z,99.41
2022-12-29T04:15:18.881Z,99.54
2022-12-29T04:17:45.330Z,99.46
2022-12-29T04:20:30.093Z,99.12
2022-12-29T04:23:01.023Z,98.85
2022-12-29T04:25:27.609Z,99.33
2022-12-29T04:27:54.051Z,98.69
2022-12-29T04:30:20.548Z,97.96
2022-12-29T04:32:46.962Z,98.34
2022-12-29T04:35:13.477Z,98.76
2022-12-29T04:37:39.887Z,97.60
2022-12-29T04:40:07.079Z,95.20
2022-12-29T04:42:34.023Z,95.03
2022-12-29T04:45:00.470Z,95.73
2022-12-29T04:47:26.925Z,94.17
2022-12-29T04:49:53.321Z,93.46
2022-12-29T04:52:19.876Z,93.03
2022-12-29T04:54:46.261Z,92.43
2022-12-29T04:57:12.637Z,93.30
2022-12-29T04:59:39.213Z,93.00
2022-12-29T05:02:05.776Z,93.01
2022-12-29T05:04:32.354Z,92.98
2022-12-29T05:06:58.883Z,92.18
2022-12-29T05:09:25.388Z,92.48
2022-12-29T05:11:52.007Z,92.25
2022-12-29T05:14:18.699Z,92.38
2022-12-29T05:16:45.298Z,92.81
2022-12-29T05:19:11.949Z,92.35
2022-12-29T05:21:38.448Z,92.30
2022-12-29T05:24:05.453Z,92.07
2022-12-29T05:26:32.049Z,92.42
2022-12-29T05:28:58.674Z,92.23
2022-12-29T05:31:25.268Z,92.03
2022-12-29T05:33:51.864Z,91.85
2022-12-29T05:36:18.998Z,92.36
2022-12-29T05:38:45.561Z,92.97
2022-12-29T05:41:12.177Z,92.44
2022-12-29T05:43:38.887Z,94.34
2022-12-29T05:46:05.560Z,94.10
2022-12-29T05:48:37.639Z,95.14
2022-12-29T05:51:04.781Z,94.79
2022-12-29T05:53:31.519Z,94.50
2022-12-29T05:55:58.069Z,95.26
2022-12-29T05:58:24.691Z,94.93
2022-12-29T06:00:52.587Z,94.59
2022-12-29T06:03:19.388Z,95.47
2022-12-29T06:05:47.158Z,94.71
2022-12-29T06:08:14.337Z,93.98
2022-12-29T06:10:40.902Z,94.29
2022-12-29T06:13:07.604Z,94.20
2022-12-29T06:15:35.095Z,94.40
2022-12-29T06:18:02.028Z,94.25
2022-12-29T06:20:28.900Z,93.87
2022-12-29T06:22:55.458Z,93.65
2022-12-29T06:25:22.121Z,93.37
2022-12-29T06:27:49.230Z,94.25
2022-12-29T06:30:16.084Z,93.34
2022-12-29T06:32:44.515Z,93.32
2022-12-29T06:35:11.068Z,94.27
2022-12-29T06:37:37.619Z,94.38
2022-12-29T06:40:04.540Z,95.31
2022-12-29T06:42:30.951Z,95.83
2022-12-29T06:44:59.922Z,95.60
2022-12-29T06:47:26.437Z,96.02
2022-12-29T06:49:53.063Z,96.22
2022-12-29T06:52:19.711Z,95.87
2022-12-29T06:54:46.432Z,95.33
2022-12-29T06:57:13.079Z,95.82
2022-12-29T06:59:39.682Z,95.05
2022-12-29T07:02:06.740Z,93.95
2022-12-29T07:04:33.713Z,94.10
2022-12-29T07:07:00.462Z,91.86
2022-12-29T07:09:27.049Z,91.10
2022-12-29T07:11:53.628Z,91.27
2022-12-29T07:14:20.129Z,90.68
2022-12-29T07:16:46.752Z,90.07
2022-12-29T07:19:13.394Z,91.06
2022-12-29T07:21:47.916Z,91.52
2022-12-29T07:24:14.557Z,91.83
2022-12-29T07:26:42.218Z,92.08
2022-12-29T07:29:08.883Z,92.23
2022-12-29T07:31:35.510Z,92.27
2022-12-29T07:34:02.025Z,92.80
2022-12-29T07:36:34.196Z,92.98
2022-12-29T07:39:01.376Z,93.70
2022-12-29T07:41:27.959Z,94.15
2022-12-29T07:43:55.274Z,93.89
2022-12-29T07:46:55.598Z,93.83
2022-12-29T07:49:08.303Z,93.61
2022-12-29T07:51:35.098Z,93.37
2022-12-29T07:54:01.840Z,93.43
2022-12-29T07:56:28.996Z,93.49
2022-12-29T07:58:55.680Z,93.82
2022-12-29T08:01:24.499Z,93.67
2022-12-29T08:03:56.902Z,93.45
2022-12-29T08:06:24.453Z,92.71
2022-12-29T08:08:51.210Z,93.14
2022-12-29T08:11:17.852Z,93.24
2022-12-29T08:13:44.351Z,92.46
2022-12-29T08:16:10.933Z,92.50
2022-12-29T08:18:37.429Z,92.27
2022-12-29T08:21:05.608Z,91.87
2022-12-29T08:23:32.675Z,91.92
2022-12-29T08:26:01.157Z,91.92
2022-12-29T08:28:27.908Z,91.98
2022-12-29T08:30:57.932Z,91.72
2022-12-29T08:33:24.709Z,90.71
2022-12-29T08:35:51.211Z,89.78
2022-12-29T08:38:18.822Z,88.75
2022-12-29T08:40:45.495Z,87.59
2022-12-29T08:43:13.728Z,87.58
2022-12-29T08:45:43.487Z,87.33
2022-12-29T08:48:10.000Z,87.48
2022-12-29T08:50:36.495Z,88.27
2022-12-29T08:53:02.914Z,88.41
2022-12-29T08:55:29.309Z,88.66
2022-12-29T08:57:55.734Z,89.38
2022-12-29T09:00:22.701Z,89.28
2022-12-29T09:02:49.492Z,89.56
2022-12-29T09:05:16.718Z,89.97
2022-12-29T09:07:43.457Z,89.46
2022-12-29T09:10:10.119Z,89.85
2022-12-29T09:12:37.044Z,90.45
2022-12-29T09:15:04.842Z,89.57
2022-12-29T09:17:44.388Z,89.60
2022-12-29T09:20:15.542Z,89.06
2022-12-29T09:22:42.629Z,89.95
2022-12-29T09:25:10.338Z,89.40
2022-12-29T09:27:37.242Z,91.33
2022-12-29T09:30:06.949Z,91.55
2022-12-29T09:32:35.251Z,92.21
2022-12-29T09:35:04.329Z,92.39
2022-12-29T09:37:30.877Z,93.01
2022-12-29T09:39:57.305Z,93.51
2022-12-29T09:42:30.559Z,93.52
2022-12-29T09:45:06.238Z,93.66
2022-12-29T09:47:32.850Z,94.06
2022-12-29T09:50:36.412Z,94.56
2022-12-29T09:53:14.784Z,95.65
2022-12-29T09:55:54.113Z,96.20
2022-12-29T09:58:48.565Z,96.99
2022-12-29T10:01:39.276Z,97.36
2022-12-29T10:04:06.308Z,97.38
2022-12-29T10:07:19.287Z,97.78
2022-12-29T10:09:41.803Z,98.31
2022-12-29T10:12:18.146Z,98.10
2022-12-29T10:15:09.232Z,98.82
2022-12-29T10:18:13.252Z,97.74
2022-12-29T10:20:58.376Z,98.76
2022-12-29T10:23:29.778Z,98.82
2022-12-29T10:25:58.261Z,98.54
2022-12-29T10:28:42.383Z,98.22
2022-12-29T10:31:22.087Z,98.72
2022-12-29T10:33:58.220Z,98.43
2022-12-29T10:36:44.627Z,97.95
2022-12-29T10:39:28.005Z,98.03
2022-12-29T10:42:12.903Z,96.92
2022-12-29T10:44:39.588Z,96.91
2022-12-29T10:47:13.150Z,97.69
2022-12-29T10:49:43.551Z,99.45
2022-12-29T10:52:12.504Z,100.00
2022-12-29T10:54:54.077Z,100.00
2022-12-29T10:57:42.355Z,100.00
2022-12-29T11:00:22.771Z,99.89
2022-12-29T11:03:07.975Z,100.00
2022-12-29T11:05:41.872Z,99.60
2022-12-29T11:08:17.568Z,98.25
2022-12-29T11:10:46.163Z,98.72
2022-12-29T11:13:38.338Z,98.62
2022-12-29T11:16:05.945Z,98.11
2022-12-29T11:18:40.893Z,98.17
2022-12-29T11:21:25.847Z,98.11
2022-12-29T11:24:04.683Z,98.39
2022-12-29T11:26:34.786Z,98.36
2022-12-29T11:29:17.132Z,98.31
2022-12-29T11:31:59.857Z,98.26
2022-12-29T11:34:35.499Z,97.87
2022-12-29T11:37:07.319Z,97.79
2022-12-29T11:39:51.304Z,97.56
2022-12-29T11:42:23.194Z,97.08
2022-12-29T11:44:52.348Z,96.97
2022-12-29T11:47:29.644Z,96.15
2022-12-29T11:50:00.116Z,96.34
2022-12-29T11:52:30.296Z,96.02
2022-12-29T11:54:57.856Z,94.93
2022-12-29T11:57:26.550Z,94.45
2022-12-29T11:59:57.329Z,93.36
2022-12-29T12:02:42.968Z,93.12
2022-12-29T12:05:20.444Z,93.25
2022-12-29T12:07:55.284Z,92.51
2022-12-29T12:10:31.041Z,92.80
2022-12-29T12:13:23.792Z,93.12
2022-12-29T12:16:03.085Z,93.13
2022-12-29T12:18:49.828Z,93.92
2022-12-29T12:21:16.352Z,93.26
2022-12-29T12:23:48.507Z,94.26
2022-12-29T12:26:21.124Z,94.15
2022-12-29T12:29:38.861Z,93.23
2022-12-29T12:32:38.857Z,93.47
2022-12-29T12:35:05.653Z,93.76
2022-12-29T12:37:50.203Z,94.04
2022-12-29T12:40:33.624Z,94.19
2022-12-29T12:43:25.456Z,93.84
2022-12-29T12:46:04.030Z,93.18
2022-12-29T12:48:36.485Z,93.45
2022-12-29T12:51:18.821Z,93.97
2022-12-29T12:53:48.259Z,94.65
2022-12-29T12:56:23.818Z,94.85
2022-12-29T12:58:54.766Z,95.22
2022-12-29T13:01:43.745Z,95.96
2022-12-29T13:04:29.942Z,94.78
2022-12-29T13:07:04.241Z,94.58
2022-12-29T13:09:57.764Z,95.47
2022-12-29T13:12:48.228Z,94.54
2022-12-29T13:15:48.054Z,94.66
2022-12-29T13:18:17.612Z,94.14
2022-12-29T13:20:58.880Z,94.79
2022-12-29T13:23:50.564Z,94.68
2022-12-29T13:26:25.386Z,94.27
2022-12-29T13:29:29.624Z,93.16
2022-12-29T13:32:12.877Z,93.50
2022-12-29T13:35:08.744Z,93.10
2022-12-29T13:37:41.672Z,92.12
2022-12-29T13:40:16.932Z,92.60
2022-12-29T13:42:44.443Z,92.62
2022-12-29T13:45:17.467Z,92.08
2022-12-29T13:47:52.263Z,92.37
2022-12-29T13:50:21.993Z,91.10
2022-12-29T13:53:05.026Z,91.87
2022-12-29T13:55:59.956Z,91.44
2022-12-29T13:58:35.755Z,91.16
2022-12-29T14:01:10.165Z,92.06
2022-12-29T14:03:51.449Z,91.40
2022-12-29T14:06:25.880Z,91.97
2022-12-29T14:08:58.718Z,92.30
2022-12-29T14:11:33.742Z,92.80
2022-12-29T14:14:12.760Z,93.53
2022-12-29T14:16:39.474Z,95.34
2022-12-29T14:19:31.107Z,95.82
2022-12-29T14:22:04.308Z,97.18
2022-12-29T14:24:33.559Z,97.55
2022-12-29T14:27:00.122Z,98.14
2022-12-29T14:29:26.580Z,97.96
2022-12-29T14:31:53.761Z,98.45
2022-12-29T14:34:23.126Z,98.84
2022-12-29T14:36:57.639Z,97.84
2022-12-29T14:39:35.638Z,97.85
2022-12-29T14:42:04.342Z,98.75
2022-12-29T14:44:31.058Z,98.22
2022-12-29T14:47:02.679Z,99.38
2022-12-29T14:49:33.210Z,98.18
2022-12-29T14:52:13.315Z,98.44
2022-12-29T14:54:40.487Z,98.72
2022-12-29T14:57:14.077Z,98.08
2022-12-29T14:59:40.766Z,98.26
2022-12-29T15:02:17.957Z,98.88
2022-12-29T15:04:45.659Z,98.54
2022-12-29T15:07:12.855Z,99.00
2022-12-29T15:10:06.112Z,99.13
2022-12-29T15:12:52.878Z,99.37
2022-12-29T15:15:21.479Z,100.00
2022-12-29T15:17:48.250Z,99.45
2022-12-29T15:20:23.840Z,100.00
2022-12-29T15:22:55.209Z,100.00
2022-12-29T15:25:21.746Z,99.59
2022-12-29T15:27:53.661Z,99.57
2022-12-29T15:30:21.462Z,99.60
2022-12-29T15:32:49.968Z,99.22
2022-12-29T15:35:23.990Z,99.53
2022-12-29T15:37:50.479Z,99.34
2022-12-29T15:40:27.661Z,98.87
2022-12-29T15:43:03.020Z,99.51
2022-12-29T15:45:34.832Z,98.74
2022-12-29T15:48:01.756Z,99.27
2022-12-29T15:50:31.313Z,98.61
2022-12-29T15:52:59.181Z,98.74
2022-12-29T15:55:39.151Z,98.57
2022-12-29T15:58:18.579Z,98.27
2022-12-29T16:00:50.849Z,98.57
2022-12-29T16:03:18.182Z,97.72
2022-12-29T16:05:52.929Z,97.51
2022-12-29T16:08:33.670Z,97.51
2022-12-29T16:11:02.872Z,96.96
2022-12-29T16:13:35.608Z,97.22
2022-12-29T16:16:26.941Z,96.69
2022-12-29T16:18:57.667Z,96.90
2022-12-29T16:21:33.102Z,97.34
2022-12-29T16:24:21.000Z,96.75
2022-12-29T16:26:50.847Z,95.94
2022-12-29T16:29:18.896Z,95.43
2022-12-29T16:32:04.232Z,94.69
2022-12-29T16:34:32.853Z,95.41
2022-12-29T16:37:00.831Z,95.70
2022-12-29T16:39:38.090Z,94.52
2022-12-29T16:42:38.741Z,94.66
2022-12-29T16:45:22.267Z,94.94
2022-12-29T16:48:06.720Z,94.22
2022-12-29T16:50:36.473Z,93.97
2022-12-29T16:53:04.541Z,93.75
2022-12-29T16:55:31.496Z,93.62
2022-12-29T16:57:59.608Z,92.74
2022-12-29T17:00:35.686Z,93.34
2022-12-29T17:03:03.789Z,93.01
2022-12-29T17:05:30.351Z,93.09
2022-12-29T17:08:01.698Z,92.94
2022-12-29T17:10:48.253Z,93.53
2022-12-29T17:13:14.768Z,92.93
2022-12-29T17:15:41.383Z,92.27
2022-12-29T17:18:13.847Z,92.87
2022-12-29T17:20:40.736Z,93.01
2022-12-29T17:23:19.717Z,92.38
2022-12-29T17:25:51.564Z,93.17
2022-12-29T17:28:24.599Z,92.95
2022-12-29T17:31:01.557Z,93.36
2022-12-29T17:33:30.006Z,92.82
2022-12-29T17:35:56.415Z,92.58
2022-12-29T17:38:29.192Z,92.34
2022-12-29T17:40:55.769Z,92.60
2022-12-29T17:43:22.644Z,92.03
2022-12-29T17:45:58.295Z,92.24
2022-12-29T17:48:25.221Z,91.70
2022-12-29T17:50:53.640Z,91.87
2022-12-29T17:53:24.805Z,92.08
2022-12-29T17:55:51.650Z,92.32
2022-12-29T17:58:22.402Z,92.34
2022-12-29T18:00:51.401Z,91.77
2022-12-29T18:03:22.203Z,92.09
2022-12-29T18:05:50.251Z,91.33
2022-12-29T18:08:16.929Z,91.23
2022-12-29T18:10:43.765Z,90.98
2022-12-29T18:13:21.409Z,91.60
2022-12-29T18:15:48.504Z,91.38
2022-12-29T18:18:18.076Z,90.69
2022-12-29T18:20:46.035Z,91.34
2022-12-29T18:23:27.306Z,90.87
2022-12-29T18:25:59.098Z,91.34
2022-12-29T18:28:26.670Z,91.17
2022-12-29T18:30:54.237Z,90.30
2022-12-29T18:33:24.967Z,90.95
2022-12-29T18:35:56.950Z,90.92
2022-12-29T18:38:23.587Z,91.06
2022-12-29T18:40:50.332Z,90.99
2022-12-29T18:43:18.249Z,91.27
2022-12-29T18:45:48.464Z,91.34
2022-12-29T18:48:16.438Z,91.13
2022-12-29T18:50:43.202Z,91.36
2022-12-29T18:53:16.768Z,91.48
2022-12-29T18:55:43.187Z,90.66
2022-12-29T18:58:09.638Z,90.89
2022-12-29T19:00:36.434Z,91.16
2022-12-29T19:03:03.036Z,91.53
2022-12-29T19:05:32.340Z,90.90
2022-12-29T19:07:58.748Z,90.80
2022-12-29T19:10:26.112Z,91.29
2022-12-29T19:12:53.365Z,91.32
2022-12-29T19:15:32.608Z,91.32
2022-12-29T19:18:41.847Z,90.67
2022-12-29T19:20:49.824Z,91.54
2022-12-29T19:23:19.016Z,91.38
2022-12-29T19:25:45.999Z,91.16
2022-12-29T19:28:38.433Z,91.19
2022-12-29T19:31:05.052Z,91.63
2022-12-29T19:33:31.593Z,92.30
2022-12-29T19:36:02.249Z,91.03
2022-12-29T19:38:28.831Z,91.69
2022-12-29T19:40:55.595Z,91.90
2022-12-29T19:43:21.989Z,91.42
2022-12-29T19:45:48.410Z,91.68
2022-12-29T19:48:18.839Z,92.04
2022-12-29T19:50:46.323Z,92.04
2022-12-29T19:53:13.544Z,91.88
2022-12-29T19:55:44.605Z,92.26
2022-12-29T19:58:11.415Z,92.21
2022-12-29T20:00:43.492Z,93.08
2022-12-29T20:03:10.948Z,92.55
2022-12-29T20:05:38.853Z,92.77
2022-12-29T20:08:05.413Z,92.01
2022-12-29T20:10:31.907Z,92.25
2022-12-29T20:12:58.407Z,92.79
2022-12-29T20:15:24.824Z,92.64
2022-12-29T20:20:37.746Z,92.45
2022-12-29T20:23:04.212Z,92.31
2022-12-29T20:25:47.291Z,93.02
2022-12-29T20:28:15.716Z,92.88
2022-12-29T20:30:42.328Z,92.83
2022-12-29T20:33:09.123Z,92.75
2022-12-29T20:35:36.528Z,92.99
2022-12-29T20:38:03.342Z,93.02
2022-12-29T20:40:29.732Z,93.10
2022-12-29T20:42:56.432Z,93.13
2022-12-29T20:45:22.976Z,93.09
2022-12-29T20:47:49.467Z,93.16
2022-12-29T20:50:15.977Z,92.70
2022-12-29T20:52:42.475Z,93.05
2022-12-29T20:55:09.015Z,92.83
2022-12-29T20:58:05.556Z,92.91
2022-12-29T21:00:22.776Z,92.58
2022-12-29T21:02:49.966Z,92.23
2022-12-29T21:05:25.298Z,92.31
2022-12-29T21:07:53.460Z,91.89
2022-12-29T21:10:20.136Z,92.34
2022-12-29T21:12:46.825Z,92.03
2022-12-29T21:15:15.445Z,92.08
2022-12-29T21:17:43.510Z,92.25
2022-12-29T21:20:20.157Z,92.06
2022-12-29T21:22:48.075Z,91.96
2022-12-29T21:25:14.698Z,92.02
2022-12-29T21:27:44.264Z,92.33
2022-12-29T21:30:11.557Z,92.76
2022-12-29T21:32:38.075Z,92.01
2022-12-29T21:35:04.804Z,92.24
2022-12-29T21:37:31.256Z,92.30
2022-12-29T21:39:58.223Z,92.08
2022-12-29T21:42:24.782Z,92.38
2022-12-29T21:45:12.888Z,93.22
2022-12-29T21:48:00.161Z,92.75
2022-12-29T21:50:26.512Z,92.94
2022-12-29T21:52:52.882Z,92.81
2022-12-29T21:55:19.373Z,92.81
2022-12-29T21:58:04.569Z,93.21
2022-12-29T22:00:49.684Z,93.41
2022-12-29T22:03:34.806Z,93.08
2022-12-29T22:06:19.773Z,93.08
2022-12-29T22:09:04.737Z,93.21
2022-12-29T22:11:49.730Z,93.30
2022-12-29T22:14:16.293Z,93.21
2022-12-29T22:16:42.752Z,93.23
2022-12-29T22:19:10.701Z,93.64
2022-12-29T22:21:37.209Z,93.74
2022-12-29T22:24:03.884Z,93.87
2022-12-29T22:26:30.451Z,94.11
2022-12-29T22:28:57.033Z,94.17
2022-12-29T22:31:29.146Z,93.77
2022-12-29T22:34:01.366Z,93.99
2022-12-29T22:36:29.300Z,94.04
2022-12-29T22:38:55.802Z,94.34
2022-12-29T22:41:22.618Z,94.56
2022-12-29T22:43:49.200Z,94.17
2022-12-29T22:46:15.663Z,94.33
2022-12-29T22:48:42.192Z,94.08
2022-12-29T22:51:08.726Z,94.84
2022-12-29T22:53:35.278Z,94.70
2022-12-29T22:56:10.912Z,94.40
2022-12-29T22:58:41.900Z,95.21
2022-12-29T23:01:09.255Z,94.71
2022-12-29T23:03:36.278Z,94.39
2022-12-29T23:06:05.544Z,94.84
2022-12-29T23:08:34.609Z,94.56
2022-12-29T23:11:01.956Z,95.10
2022-12-29T23:13:28.891Z,94.57
2022-12-29T23:15:55.479Z,95.11
2022-12-29T23:18:22.298Z,94.49
2022-12-29T23:20:49.360Z,95.23
2022-12-29T23:23:40.589Z,95.40
2022-12-29T23:26:11.262Z,95.52
2022-12-29T23:28:37.711Z,95.78
2022-12-29T23:31:04.828Z,95.52
2022-12-29T23:33:31.378Z,95.44
2022-12-29T23:35:57.873Z,95.75
2022-12-29T23:38:24.451Z,96.32
2022-12-29T23:40:50.872Z,96.06
2022-12-29T23:43:17.816Z,96.35
2022-12-29T23:45:49.080Z,96.05
2022-12-29T23:48:17.887Z,96.13
2022-12-29T23:50:44.324Z,96.19
2022-12-29T23:53:11.413Z,95.94
2022-12-29T23:55:41.868Z,96.71
2022-12-29T23:58:08.530Z,96.48
